createdAt,value
2023-04-02T00:00:34.426Z,951.7911
2023-04-02T00:01:35.217Z,951.7878
2023-04-02T00:02:36.035Z,951.8104
2023-04-02T00:03:36.967Z,951.8286
2023-04-02T00:04:37.994Z,951.8274
2023-04-02T00:05:38.786Z,951.8359
2023-04-02T00:06:39.609Z,951.8148
2023-04-02T00:07:40.452Z,951.8815
2023-04-02T00:08:41.312Z,951.8852
2023-04-02T00:09:42.188Z,951.8508
2023-04-02T00:10:43.004Z,951.8011
2023-04-02T00:11:43.757Z,951.8304
2023-04-02T00:12:44.609Z,951.8134
2023-04-02T00:13:45.386Z,951.8078
2023-04-02T00:14:47.356Z,951.7741
2023-04-02T00:15:48.166Z,951.7593
2023-04-02T00:16:48.985Z,951.7448
2023-04-02T00:17:49.972Z,951.7537
2023-04-02T00:18:50.750Z,951.7722
2023-04-02T00:19:51.601Z,951.7781
2023-04-02T00:20:52.414Z,951.7789
2023-04-02T00:21:53.234Z,951.7900
2023-04-02T00:22:54.200Z,951.7911
2023-04-02T00:23:54.997Z,951.8111
2023-04-02T00:24:55.811Z,951.8337
2023-04-02T00:25:56.782Z,951.8241
2023-04-02T00:26:57.626Z,951.8134
2023-04-02T00:27:58.479Z,951.8089
2023-04-02T00:28:59.293Z,951.8093
2023-04-02T00:30:00.189Z,951.8315
2023-04-02T00:31:00.992Z,951.8381
2023-04-02T00:32:01.898Z,951.8293
2023-04-02T00:33:02.789Z,951.8189
2023-04-02T00:34:03.701Z,951.8052
2023-04-02T00:35:04.560Z,951.8044
2023-04-02T00:36:05.389Z,951.7808
2023-04-02T00:37:06.235Z,951.7900
2023-04-02T00:38:07.133Z,951.7952
2023-04-02T00:39:07.890Z,951.7715
2023-04-02T00:40:08.674Z,951.7729
2023-04-02T00:41:09.547Z,951.7715
2023-04-02T00:42:10.348Z,951.7826
2023-04-02T00:43:11.170Z,951.8015
2023-04-02T00:44:12.029Z,951.8048
2023-04-02T00:45:12.847Z,951.7955
2023-04-02T00:46:13.691Z,951.7752
2023-04-02T00:47:14.714Z,951.7933
2023-04-02T00:48:15.543Z,951.7959
2023-04-02T00:49:16.411Z,951.7993
2023-04-02T00:50:17.335Z,951.8037
2023-04-02T00:51:18.176Z,951.8078
2023-04-02T00:52:18.997Z,951.8118
2023-04-02T00:53:19.861Z,951.8015
2023-04-02T00:54:20.667Z,951.7914
2023-04-02T00:55:21.590Z,951.7900
2023-04-02T00:56:22.465Z,951.7948
2023-04-02T00:57:23.369Z,951.7852
2023-04-02T00:58:24.339Z,951.7907
2023-04-02T00:59:25.265Z,951.7985
2023-04-02T01:00:26.181Z,951.8041
2023-04-02T01:01:27.177Z,951.7800
2023-04-02T01:02:28.545Z,951.7793
2023-04-02T01:03:30.244Z,951.7722
2023-04-02T01:04:32.002Z,951.7552
2023-04-02T01:05:33.302Z,951.7504
2023-04-02T01:06:35.160Z,951.7418
2023-04-02T01:07:36.000Z,951.7163
2023-04-02T01:08:36.827Z,951.7026
2023-04-02T01:09:37.720Z,951.7067
2023-04-02T01:10:38.870Z,951.7192
2023-04-02T01:11:39.814Z,951.7314
2023-04-02T01:12:40.762Z,951.7430
2023-04-02T01:13:41.653Z,951.7437
2023-04-02T01:14:42.513Z,951.7500
2023-04-02T01:15:43.430Z,951.7556
2023-04-02T01:16:44.250Z,951.7578
2023-04-02T01:17:45.134Z,951.7615
2023-04-02T01:18:46.115Z,951.7774
2023-04-02T01:19:47.044Z,951.7830
2023-04-02T01:20:48.099Z,951.7808
2023-04-02T01:21:48.924Z,951.7959
2023-04-02T01:22:49.848Z,951.8041
2023-04-02T01:23:50.672Z,951.8007
2023-04-02T01:24:51.499Z,951.8193
2023-04-02T01:25:52.377Z,951.8430
2023-04-02T01:26:53.160Z,951.8526
2023-04-02T01:27:54.005Z,951.8611
2023-04-02T01:28:55.079Z,951.8596
2023-04-02T01:29:55.980Z,951.8607
2023-04-02T01:30:56.848Z,951.8574
2023-04-02T01:31:57.709Z,951.8441
2023-04-02T01:32:58.556Z,951.8252
2023-04-02T01:33:59.716Z,951.8170
2023-04-02T01:35:00.506Z,951.8378
2023-04-02T01:36:01.419Z,951.8530
2023-04-02T01:37:02.328Z,951.8589
2023-04-02T01:38:03.143Z,951.8711
2023-04-02T01:39:03.928Z,951.8885
2023-04-02T01:40:04.692Z,951.8856
2023-04-02T01:41:05.522Z,951.9030
2023-04-02T01:42:06.334Z,951.8986
2023-04-02T01:43:07.160Z,951.8967
2023-04-02T01:44:08.992Z,951.8870
2023-04-02T01:45:09.893Z,951.8918
2023-04-02T01:46:10.780Z,951.8885
2023-04-02T01:47:11.604Z,951.8859
2023-04-02T01:48:12.425Z,951.8848
2023-04-02T01:49:13.327Z,951.8796
2023-04-02T01:50:14.192Z,951.8674
2023-04-02T01:51:15.080Z,951.8748
2023-04-02T01:52:15.993Z,951.8874
2023-04-02T01:53:16.848Z,951.8893
2023-04-02T01:54:18.654Z,951.8730
2023-04-02T01:55:19.712Z,951.8759
2023-04-02T01:56:20.528Z,951.8759
2023-04-02T01:57:21.482Z,951.8834
2023-04-02T01:58:22.366Z,951.8882
2023-04-02T01:59:23.256Z,951.8911
2023-04-02T02:00:24.115Z,951.8993
2023-04-02T02:01:25.034Z,951.9096
2023-04-02T02:02:25.987Z,951.9133
2023-04-02T02:03:26.810Z,951.9248
2023-04-02T02:04:27.715Z,951.9233
2023-04-02T02:05:28.618Z,951.9278
2023-04-02T02:06:29.440Z,951.9374
2023-04-02T02:07:30.292Z,951.9400
2023-04-02T02:08:31.085Z,951.9522
2023-04-02T02:09:31.906Z,951.9744
2023-04-02T02:10:32.716Z,951.9926
2023-04-02T02:11:33.516Z,951.9959
2023-04-02T02:12:34.356Z,951.9952
2023-04-02T02:13:35.197Z,952.0022
2023-04-02T02:14:36.017Z,952.0034
2023-04-02T02:15:37.141Z,952.0118
2023-04-02T02:16:38.382Z,952.0341
2023-04-02T02:17:39.245Z,952.0285
2023-04-02T02:18:40.079Z,952.0248
2023-04-02T02:19:40.929Z,952.0186
2023-04-02T02:20:41.859Z,952.0315
2023-04-02T02:21:42.680Z,952.0319
2023-04-02T02:22:43.532Z,952.0137
2023-04-02T02:23:44.400Z,951.9982
2023-04-02T02:24:45.207Z,951.9982
2023-04-02T02:25:46.050Z,952.0100
2023-04-02T02:26:46.870Z,952.0363
2023-04-02T02:27:47.768Z,952.0170
2023-04-02T02:28:48.556Z,952.0159
2023-04-02T02:29:49.444Z,952.0229
2023-04-02T02:30:50.361Z,952.0496
2023-04-02T02:31:51.281Z,952.0833
2023-04-02T02:32:52.197Z,952.1096
2023-04-02T02:33:53.109Z,952.1296
2023-04-02T02:34:53.964Z,952.1374
2023-04-02T02:35:54.905Z,952.1322
2023-04-02T02:36:55.813Z,952.1578
2023-04-02T02:37:56.678Z,952.1833
2023-04-02T02:38:57.597Z,952.1985
2023-04-02T02:39:58.452Z,952.2203
2023-04-02T02:40:59.319Z,952.2348
2023-04-02T02:42:00.157Z,952.2474
2023-04-02T02:43:00.953Z,952.2719
2023-04-02T02:44:01.804Z,952.2844
2023-04-02T02:45:02.661Z,952.2966
2023-04-02T02:46:03.537Z,952.3111
2023-04-02T02:47:04.384Z,952.3141
2023-04-02T02:48:05.259Z,952.3297
2023-04-02T02:49:06.122Z,952.3444
2023-04-02T02:50:06.943Z,952.3367
2023-04-02T02:51:07.796Z,952.3503
2023-04-02T02:52:08.662Z,952.3404
2023-04-02T02:53:09.567Z,952.3422
2023-04-02T02:54:10.357Z,952.3582
2023-04-02T02:55:11.213Z,952.3570
2023-04-02T02:56:12.047Z,952.3478
2023-04-02T02:57:12.941Z,952.3589
2023-04-02T02:58:13.808Z,952.3770
2023-04-02T02:59:14.651Z,952.3711
2023-04-02T03:00:15.572Z,952.3766
2023-04-02T03:01:16.426Z,952.3904
2023-04-02T03:02:17.315Z,952.4011
2023-04-02T03:03:18.430Z,952.4103
2023-04-02T03:04:19.626Z,952.4248
2023-04-02T03:05:20.659Z,952.4211
2023-04-02T03:06:21.556Z,952.4370
2023-04-02T03:07:22.384Z,952.4348
2023-04-02T03:08:23.207Z,952.4463
2023-04-02T03:09:24.064Z,952.4581
2023-04-02T03:10:24.924Z,952.4652
2023-04-02T03:11:25.816Z,952.4781
2023-04-02T03:12:26.644Z,952.4889
2023-04-02T03:13:27.530Z,952.4963
2023-04-02T03:14:28.418Z,952.5041
2023-04-02T03:15:29.273Z,952.5118
2023-04-02T03:16:30.125Z,952.5237
2023-04-02T03:17:30.958Z,952.5396
2023-04-02T03:18:31.795Z,952.5496
2023-04-02T03:19:32.560Z,952.5663
2023-04-02T03:20:33.398Z,952.5793
2023-04-02T03:21:34.280Z,952.5867
2023-04-02T03:22:35.108Z,952.5870
2023-04-02T03:23:36.016Z,952.5852
2023-04-02T03:24:36.871Z,952.5867
2023-04-02T03:25:37.759Z,952.5919
2023-04-02T03:26:38.636Z,952.5882
2023-04-02T03:27:39.440Z,952.6007
2023-04-02T03:28:40.346Z,952.6163
2023-04-02T03:29:41.205Z,952.6185
2023-04-02T03:30:42.018Z,952.6207
2023-04-02T03:31:42.939Z,952.6207
2023-04-02T03:32:43.793Z,952.6182
2023-04-02T03:33:44.639Z,952.6211
2023-04-02T03:34:45.551Z,952.6330
2023-04-02T03:35:46.401Z,952.6330
2023-04-02T03:36:47.305Z,952.6126
2023-04-02T03:37:48.132Z,952.6178
2023-04-02T03:38:48.990Z,952.6396
2023-04-02T03:39:49.862Z,952.6404
2023-04-02T03:40:50.734Z,952.6396
2023-04-02T03:41:51.521Z,952.6659
2023-04-02T03:42:52.407Z,952.6666
2023-04-02T03:43:53.254Z,952.6822
2023-04-02T03:44:54.067Z,952.6945
2023-04-02T03:45:54.907Z,952.7156
2023-04-02T03:46:55.860Z,952.7259
2023-04-02T03:47:56.715Z,952.7459
2023-04-02T03:48:57.622Z,952.7630
2023-04-02T03:49:58.430Z,952.7570
2023-04-02T03:50:59.304Z,952.7634
2023-04-02T03:52:00.224Z,952.7781
2023-04-02T03:53:01.069Z,952.7963
2023-04-02T03:54:01.915Z,952.8015
2023-04-02T03:55:02.690Z,952.8137
2023-04-02T03:56:03.475Z,952.8241
2023-04-02T03:57:04.381Z,952.8163
2023-04-02T03:58:05.271Z,952.8078
2023-04-02T03:59:06.061Z,952.8055
2023-04-02T04:00:06.896Z,952.8145
2023-04-02T04:01:07.770Z,952.8152
2023-04-02T04:02:08.633Z,952.8085
2023-04-02T04:03:09.534Z,952.7978
2023-04-02T04:04:10.599Z,952.8044
2023-04-02T04:05:11.768Z,952.8093
2023-04-02T04:06:12.755Z,952.8159
2023-04-02T04:07:13.671Z,952.8270
2023-04-02T04:08:14.508Z,952.8245
2023-04-02T04:09:15.370Z,952.8189
2023-04-02T04:10:16.234Z,952.7826
2023-04-02T04:11:17.118Z,952.7881
2023-04-02T04:12:17.946Z,952.8148
2023-04-02T04:13:18.859Z,952.8152
2023-04-02T04:14:19.658Z,952.8070
2023-04-02T04:15:20.547Z,952.8093
2023-04-02T04:16:21.468Z,952.8226
2023-04-02T04:17:22.320Z,952.8467
2023-04-02T04:18:24.187Z,952.8633
2023-04-02T04:19:25.012Z,952.8841
2023-04-02T04:20:25.836Z,952.8945
2023-04-02T04:21:26.687Z,952.9026
2023-04-02T04:22:27.563Z,952.9119
2023-04-02T04:23:28.385Z,952.9126
2023-04-02T04:24:29.247Z,952.9155
2023-04-02T04:25:30.104Z,952.9182
2023-04-02T04:26:31.178Z,952.9266
2023-04-02T04:27:32.058Z,952.9482
2023-04-02T04:28:33.002Z,952.9518
2023-04-02T04:29:33.842Z,952.9574
2023-04-02T04:30:34.788Z,952.9563
2023-04-02T04:31:35.637Z,952.9496
2023-04-02T04:32:36.549Z,952.9507
2023-04-02T04:33:37.356Z,952.9500
2023-04-02T04:34:38.192Z,952.9608
2023-04-02T04:35:39.444Z,952.9700
2023-04-02T04:36:39.218Z,952.9769
2023-04-02T04:37:41.033Z,952.9789
2023-04-02T04:38:41.806Z,952.9827
2023-04-02T04:39:42.640Z,952.9948
2023-04-02T04:40:43.448Z,953.0056
2023-04-02T04:41:44.456Z,953.0141
2023-04-02T04:42:45.235Z,953.0219
2023-04-02T04:43:46.140Z,953.0352
2023-04-02T04:44:46.937Z,953.0485
2023-04-02T04:45:47.941Z,953.0634
2023-04-02T04:46:48.778Z,953.0711
2023-04-02T04:47:49.651Z,953.0763
2023-04-02T04:48:50.559Z,953.0745
2023-04-02T04:49:51.402Z,953.0841
2023-04-02T04:50:52.279Z,953.0900
2023-04-02T04:51:53.200Z,953.1130
2023-04-02T04:52:54.077Z,953.1245
2023-04-02T04:53:55.958Z,953.1426
2023-04-02T04:54:56.747Z,953.1592
2023-04-02T04:56:05.905Z,953.1670
2023-04-02T04:56:59.157Z,953.1846
2023-04-02T04:58:00.055Z,953.1848
2023-04-02T04:59:00.856Z,953.1826
2023-04-02T05:00:01.649Z,953.1841
2023-04-02T05:01:02.515Z,953.1837
2023-04-02T05:02:03.460Z,953.1822
2023-04-02T05:03:04.303Z,953.1707
2023-04-02T05:04:05.137Z,953.1596
2023-04-02T05:05:05.982Z,953.1589
2023-04-02T05:06:06.792Z,953.1611
2023-04-02T05:07:07.647Z,953.1578
2023-04-02T05:08:08.465Z,953.1556
2023-04-02T05:09:09.274Z,953.1581
2023-04-02T05:10:10.127Z,953.1741
2023-04-02T05:11:10.983Z,953.1707
2023-04-02T05:12:11.876Z,953.1678
2023-04-02T05:13:12.800Z,953.1659
2023-04-02T05:14:13.589Z,953.1696
2023-04-02T05:15:14.461Z,953.1889
2023-04-02T05:16:16.372Z,953.2097
2023-04-02T05:17:17.187Z,953.2207
2023-04-02T05:18:18.005Z,953.2289
2023-04-02T05:19:19.084Z,953.2448
2023-04-02T05:20:19.854Z,953.2615
2023-04-02T05:21:20.637Z,953.2767
2023-04-02T05:22:21.469Z,953.2811
2023-04-02T05:23:22.278Z,953.2752
2023-04-02T05:24:23.097Z,953.2785
2023-04-02T05:25:23.943Z,953.2926
2023-04-02T05:26:24.752Z,953.2941
2023-04-02T05:27:25.680Z,953.2903
2023-04-02T05:28:26.510Z,953.3174
2023-04-02T05:29:27.465Z,953.3315
2023-04-02T05:30:28.266Z,953.3304
2023-04-02T05:31:29.156Z,953.3270
2023-04-02T05:32:29.999Z,953.3352
2023-04-02T05:33:30.866Z,953.3533
2023-04-02T05:34:31.699Z,953.3530
2023-04-02T05:35:32.567Z,953.3507
2023-04-02T05:36:33.364Z,953.3615
2023-04-02T05:37:34.281Z,953.3789
2023-04-02T05:38:35.132Z,953.3800
2023-04-02T05:39:36.009Z,953.3759
2023-04-02T05:40:36.880Z,953.3693
2023-04-02T05:41:37.743Z,953.3748
2023-04-02T05:42:38.578Z,953.3737
2023-04-02T05:43:39.359Z,953.3755
2023-04-02T05:44:40.170Z,953.3856
2023-04-02T05:45:40.988Z,953.3878
2023-04-02T05:46:41.855Z,953.3945
2023-04-02T05:47:42.805Z,953.4141
2023-04-02T05:48:43.660Z,953.4333
2023-04-02T05:49:44.468Z,953.4445
2023-04-02T05:50:45.283Z,953.4670
2023-04-02T05:51:46.078Z,953.4752
2023-04-02T05:52:46.962Z,953.4800
2023-04-02T05:53:47.754Z,953.5015
2023-04-02T05:54:48.691Z,953.5096
2023-04-02T05:55:49.555Z,953.5219
2023-04-02T05:56:50.456Z,953.5322
2023-04-02T05:58:13.505Z,953.5419
2023-04-02T05:58:52.781Z,953.5532
2023-04-02T05:59:53.660Z,953.5711
2023-04-02T06:00:54.535Z,953.5837
2023-04-02T06:01:55.383Z,953.5881
2023-04-02T06:02:56.284Z,953.6063
2023-04-02T06:03:58.049Z,953.6193
2023-04-02T06:04:58.867Z,953.6300
2023-04-02T06:05:59.695Z,953.6470
2023-04-02T06:07:00.621Z,953.6611
2023-04-02T06:08:02.504Z,953.6763
2023-04-02T06:09:03.310Z,953.6848
2023-04-02T06:10:04.135Z,953.6896
2023-04-02T06:11:05.024Z,953.7000
2023-04-02T06:12:05.861Z,953.7059
2023-04-02T06:13:06.747Z,953.7203
2023-04-02T06:14:07.550Z,953.7266
2023-04-02T06:15:08.408Z,953.7396
2023-04-02T06:16:09.214Z,953.7437
2023-04-02T06:17:09.993Z,953.7507
2023-04-02T06:18:10.885Z,953.7648
2023-04-02T06:19:11.781Z,953.7822
2023-04-02T06:20:12.572Z,953.7870
2023-04-02T06:21:13.314Z,953.7966
2023-04-02T06:22:14.066Z,953.8122
2023-04-02T06:23:14.819Z,953.8274
2023-04-02T06:24:15.662Z,953.8378
2023-04-02T06:25:16.487Z,953.8330
2023-04-02T06:26:17.367Z,953.8433
2023-04-02T06:27:18.209Z,953.8578
2023-04-02T06:28:19.009Z,953.8682
2023-04-02T06:29:19.840Z,953.8793
2023-04-02T06:30:20.650Z,953.8789
2023-04-02T06:31:21.432Z,953.8763
2023-04-02T06:32:22.318Z,953.8796
2023-04-02T06:33:23.103Z,953.8930
2023-04-02T06:34:23.920Z,953.9044
2023-04-02T06:35:24.743Z,953.9144
2023-04-02T06:36:25.545Z,953.9182
2023-04-02T06:37:26.341Z,953.9218
2023-04-02T06:38:27.175Z,953.9344
2023-04-02T06:39:27.985Z,953.9474
2023-04-02T06:40:28.809Z,953.9407
2023-04-02T06:41:29.602Z,953.9415
2023-04-02T06:42:30.411Z,953.9437
2023-04-02T06:43:31.215Z,953.9485
2023-04-02T06:44:32.198Z,953.9526
2023-04-02T06:45:33.125Z,953.9597
2023-04-02T06:46:34.490Z,953.9511
2023-04-02T06:47:35.420Z,953.9626
2023-04-02T06:48:36.250Z,953.9604
2023-04-02T06:49:37.051Z,953.9789
2023-04-02T06:50:37.827Z,953.9952
2023-04-02T06:51:38.666Z,954.0126
2023-04-02T06:52:39.468Z,954.0193
2023-04-02T06:53:40.322Z,954.0326
2023-04-02T06:54:41.089Z,954.0444
2023-04-02T06:55:42.919Z,954.0589
2023-04-02T06:56:43.727Z,954.0670
2023-04-02T06:57:44.674Z,954.0786
2023-04-02T06:58:45.563Z,954.0800
2023-04-02T06:59:47.593Z,954.1007
2023-04-02T07:00:48.409Z,954.1222
2023-04-02T07:01:49.308Z,954.1382
2023-04-02T07:02:50.225Z,954.1437
2023-04-02T07:03:51.051Z,954.1700
2023-04-02T07:04:51.916Z,954.1826
2023-04-02T07:05:52.815Z,954.1937
2023-04-02T07:06:54.670Z,954.2192
2023-04-02T07:07:55.547Z,954.2037
2023-04-02T07:08:56.337Z,954.2085
2023-04-02T07:09:57.130Z,954.2219
2023-04-02T07:10:57.954Z,954.2144
2023-04-02T07:11:58.681Z,954.2137
2023-04-02T07:12:59.472Z,954.2192
2023-04-02T07:14:00.396Z,954.2322
2023-04-02T07:15:01.160Z,954.2318
2023-04-02T07:16:02.018Z,954.2289
2023-04-02T07:17:03.519Z,954.2348
2023-04-02T07:18:04.296Z,954.2548
2023-04-02T07:19:05.766Z,954.2737
2023-04-02T07:20:06.634Z,954.2852
2023-04-02T07:21:10.791Z,954.2822
2023-04-02T07:22:11.195Z,954.2986
2023-04-02T07:23:14.015Z,954.3168
2023-04-02T07:24:13.193Z,954.3340
2023-04-02T07:25:13.970Z,954.3404
2023-04-02T07:26:14.834Z,954.3674
2023-04-02T07:27:15.679Z,954.3967
2023-04-02T07:28:16.599Z,954.4159
2023-04-02T07:29:17.364Z,954.4096
2023-04-02T07:30:18.134Z,954.4067
2023-04-02T07:31:19.013Z,954.4126
2023-04-02T07:32:19.764Z,954.4218
2023-04-02T07:33:20.561Z,954.4348
2023-04-02T07:34:21.401Z,954.4382
2023-04-02T07:35:22.182Z,954.4326
2023-04-02T07:36:23.048Z,954.4300
2023-04-02T07:37:24.078Z,954.4207
2023-04-02T07:38:24.945Z,954.4230
2023-04-02T07:39:25.749Z,954.4218
2023-04-02T07:40:26.557Z,954.4463
2023-04-02T07:41:27.308Z,954.4852
2023-04-02T07:42:28.059Z,954.4814
2023-04-02T07:43:28.938Z,954.4814
2023-04-02T07:44:29.771Z,954.5274
2023-04-02T07:45:30.648Z,954.5267
2023-04-02T07:46:31.486Z,954.5396
2023-04-02T07:47:32.320Z,954.5485
2023-04-02T07:48:34.212Z,954.5381
2023-04-02T07:49:35.040Z,954.5285
2023-04-02T07:50:35.823Z,954.5344
2023-04-02T07:51:36.628Z,954.5403
2023-04-02T07:52:39.854Z,954.5330
2023-04-02T07:53:39.068Z,954.5212
2023-04-02T07:54:39.818Z,954.5204
2023-04-02T07:55:40.538Z,954.5437
2023-04-02T07:56:41.331Z,954.5696
2023-04-02T07:57:43.657Z,954.5885
2023-04-02T07:58:43.117Z,954.6004
2023-04-02T07:59:43.892Z,954.5782
2023-04-02T08:00:44.599Z,954.5707
2023-04-02T08:01:45.381Z,954.5833
2023-04-02T08:02:46.199Z,954.6078
2023-04-02T08:03:47.031Z,954.6218
2023-04-02T08:04:47.941Z,954.6378
2023-04-02T08:05:48.676Z,954.6334
2023-04-02T08:06:49.473Z,954.6304
2023-04-02T08:07:50.250Z,954.6770
2023-04-02T08:08:51.060Z,954.6666
2023-04-02T08:09:51.834Z,954.6993
2023-04-02T08:10:52.658Z,954.7015
2023-04-02T08:11:53.417Z,954.6800
2023-04-02T08:12:54.241Z,954.6970
2023-04-02T08:13:55.032Z,954.7219
2023-04-02T08:14:55.811Z,954.7037
2023-04-02T08:15:56.568Z,954.7185
2023-04-02T08:16:57.376Z,954.7318
2023-04-02T08:17:58.366Z,954.7674
2023-04-02T08:18:59.276Z,954.7704
2023-04-02T08:20:00.056Z,954.7659
2023-04-02T08:21:00.779Z,954.7715
2023-04-02T08:22:01.832Z,954.7896
2023-04-02T08:23:02.587Z,954.7874
2023-04-02T08:24:03.333Z,954.8070
2023-04-02T08:25:04.161Z,954.8533
2023-04-02T08:26:04.899Z,954.8256
2023-04-02T08:27:05.658Z,954.8218
2023-04-02T08:28:06.398Z,954.8066
2023-04-02T08:29:07.099Z,954.7907
2023-04-02T08:30:07.896Z,954.7848
2023-04-02T08:31:08.641Z,954.8096
2023-04-02T08:32:09.414Z,954.8329
2023-04-02T08:33:10.181Z,954.8485
2023-04-02T08:34:10.940Z,954.8282
2023-04-02T08:35:11.667Z,954.8307
2023-04-02T08:36:12.492Z,954.8507
2023-04-02T08:37:13.197Z,954.8555
2023-04-02T08:38:13.934Z,954.8730
2023-04-02T08:39:14.959Z,954.8926
2023-04-02T08:40:15.696Z,954.8926
2023-04-02T08:41:16.457Z,954.8834
2023-04-02T08:42:17.218Z,954.8926
2023-04-02T08:43:17.942Z,954.9107
2023-04-02T08:44:18.675Z,954.8989
2023-04-02T08:45:24.871Z,954.8785
2023-04-02T08:46:19.777Z,954.9158
2023-04-02T08:47:20.574Z,954.9059
2023-04-02T08:48:21.327Z,954.9633
2023-04-02T08:49:22.089Z,954.9626
2023-04-02T08:50:22.856Z,954.9315
2023-04-02T08:51:23.615Z,954.9648
2023-04-02T08:52:24.309Z,954.9366
2023-04-02T08:53:25.077Z,954.9722
2023-04-02T08:54:25.857Z,954.9648
2023-04-02T08:55:26.657Z,954.9426
2023-04-02T08:56:27.370Z,954.9774
2023-04-02T08:57:28.217Z,954.9822
2023-04-02T08:58:29.116Z,954.9767
2023-04-02T08:59:29.886Z,954.9818
2023-04-02T09:00:30.641Z,954.9863
2023-04-02T09:01:31.420Z,955.0000
2023-04-02T09:02:32.324Z,955.0048
2023-04-02T09:03:33.079Z,955.0330
2023-04-02T09:04:33.829Z,955.0233
2023-04-02T09:05:34.803Z,955.0200
2023-04-02T09:06:36.014Z,955.0285
2023-04-02T09:07:36.778Z,955.0245
2023-04-02T09:08:37.539Z,955.0359
2023-04-02T09:09:38.305Z,955.0248
2023-04-02T09:10:39.142Z,955.0297
2023-04-02T09:11:39.941Z,955.0471
2023-04-02T09:12:42.279Z,955.0604
2023-04-02T09:13:40.884Z,955.0923
2023-04-02T09:14:41.639Z,955.0797
2023-04-02T09:15:42.463Z,955.0622
2023-04-02T09:16:43.194Z,955.0878
2023-04-02T09:17:53.629Z,955.1118
2023-04-02T09:18:44.072Z,955.1259
2023-04-02T09:19:44.776Z,955.1526
2023-04-02T09:20:45.521Z,955.1604
2023-04-02T09:21:46.492Z,955.1463
2023-04-02T09:22:47.237Z,955.1682
2023-04-02T09:23:47.955Z,955.1693
2023-04-02T09:24:48.686Z,955.1452
2023-04-02T09:26:02.995Z,955.1581
2023-04-02T09:26:50.791Z,955.1727
2023-04-02T09:27:51.498Z,955.2004
2023-04-02T09:28:52.217Z,955.2126
2023-04-02T09:29:52.924Z,955.1918
2023-04-02T09:30:53.646Z,955.2215
2023-04-02T09:31:54.421Z,955.2040
2023-04-02T09:32:55.274Z,955.1963
2023-04-02T09:33:55.997Z,955.1996
2023-04-02T09:34:56.739Z,955.2278
2023-04-02T09:35:57.595Z,955.2244
2023-04-02T09:36:58.664Z,955.2585
2023-04-02T09:37:59.384Z,955.2967
2023-04-02T09:39:00.115Z,955.2726
2023-04-02T09:40:00.827Z,955.2548
2023-04-02T09:41:01.601Z,955.2737
2023-04-02T09:42:05.851Z,955.2878
2023-04-02T09:43:02.321Z,955.3304
2023-04-02T09:44:03.082Z,955.3956
2023-04-02T09:45:03.879Z,955.3926
2023-04-02T09:46:04.767Z,955.3952
2023-04-02T09:47:05.750Z,955.4100
2023-04-02T09:48:06.586Z,955.4652
2023-04-02T09:49:07.353Z,955.5000
2023-04-02T09:50:08.075Z,955.4918
2023-04-02T09:51:08.815Z,955.4733
2023-04-02T09:52:09.585Z,955.4759
2023-04-02T09:53:10.277Z,955.5256
2023-04-02T09:54:11.006Z,955.5522
2023-04-02T09:55:11.766Z,955.5263
2023-04-02T09:56:12.556Z,955.5389
2023-04-02T09:57:13.338Z,955.5308
2023-04-02T09:58:14.116Z,955.5485
2023-04-02T09:59:14.824Z,955.5522
2023-04-02T10:00:29.750Z,955.5444
2023-04-02T10:01:16.980Z,955.5364
2023-04-02T10:02:17.854Z,955.5259
2023-04-02T10:03:18.589Z,955.5748
2023-04-02T10:04:19.416Z,955.5759
2023-04-02T10:05:30.194Z,955.5767
2023-04-02T10:06:21.561Z,955.5568
2023-04-02T10:07:22.274Z,955.5574
2023-04-02T10:08:23.040Z,955.5474
2023-04-02T10:09:23.787Z,955.5718
2023-04-02T10:10:25.926Z,955.5370
2023-04-02T10:11:28.854Z,955.5300
2023-04-02T10:12:26.494Z,955.5227
2023-04-02T10:13:27.233Z,955.5322
2023-04-02T10:14:27.936Z,955.5507
2023-04-02T10:15:28.703Z,955.5407
2023-04-02T10:16:29.599Z,955.5444
2023-04-02T10:17:30.424Z,955.5626
2023-04-02T10:18:31.068Z,955.5774
2023-04-02T10:19:31.892Z,955.5622
2023-04-02T10:20:39.072Z,955.5689
2023-04-02T10:21:34.013Z,955.5791
2023-04-02T10:22:34.724Z,955.5667
2023-04-02T10:23:35.421Z,955.5881
2023-04-02T10:24:36.160Z,955.6245
2023-04-02T10:25:37.108Z,955.6093
2023-04-02T10:26:38.236Z,955.5970
2023-04-02T10:27:38.912Z,955.6122
2023-04-02T10:28:39.604Z,955.6278
2023-04-02T10:29:40.348Z,955.6078
2023-04-02T10:30:41.115Z,955.5948
2023-04-02T10:31:41.810Z,955.6170
2023-04-02T10:32:42.513Z,955.6389
2023-04-02T10:33:43.200Z,955.6633
2023-04-02T10:34:43.906Z,955.6548
2023-04-02T10:35:44.610Z,955.6896
2023-04-02T10:36:45.357Z,955.6689
2023-04-02T10:37:46.063Z,955.6478
2023-04-02T10:38:46.762Z,955.6589
2023-04-02T10:39:47.448Z,955.6644
2023-04-02T10:40:48.144Z,955.7104
2023-04-02T10:41:48.872Z,955.7018
2023-04-02T10:42:49.533Z,955.7255
2023-04-02T10:43:50.282Z,955.7259
2023-04-02T10:44:50.982Z,955.6926
2023-04-02T10:45:51.689Z,955.6800
2023-04-02T10:46:52.351Z,955.7137
2023-04-02T10:47:53.112Z,955.7404
2023-04-02T10:48:53.817Z,955.7366
2023-04-02T10:49:54.517Z,955.7130
2023-04-02T10:50:55.246Z,955.7059
2023-04-02T10:51:55.944Z,955.6934
2023-04-02T10:52:56.875Z,955.7074
2023-04-02T10:53:57.580Z,955.7192
2023-04-02T10:54:58.301Z,955.7611
2023-04-02T10:55:58.987Z,955.7800
2023-04-02T10:56:59.694Z,955.7678
2023-04-02T10:58:00.339Z,955.7556
2023-04-02T10:59:01.017Z,955.7833
2023-04-02T11:00:01.827Z,955.7589
2023-04-02T11:01:02.548Z,955.7167
2023-04-02T11:02:03.258Z,955.7278
2023-04-02T11:03:04.446Z,955.7185
2023-04-02T11:04:05.412Z,955.7415
2023-04-02T11:05:06.123Z,955.7415
2023-04-02T11:06:07.112Z,955.7589
2023-04-02T11:07:14.354Z,955.7770
2023-04-02T11:08:09.002Z,955.7780
2023-04-02T11:09:09.681Z,955.7600
2023-04-02T11:10:10.363Z,955.7634
2023-04-02T11:11:11.071Z,955.8115
2023-04-02T11:12:11.750Z,955.8218
2023-04-02T11:13:12.440Z,955.8048
2023-04-02T11:14:13.132Z,955.8044
2023-04-02T11:15:13.816Z,955.8041
2023-04-02T11:16:14.557Z,955.7781
2023-04-02T11:17:15.181Z,955.7963
2023-04-02T11:18:15.901Z,955.7870
2023-04-02T11:19:16.840Z,955.7626
2023-04-02T11:20:17.588Z,955.7722
2023-04-02T11:21:18.279Z,955.7804
2023-04-02T11:22:18.985Z,955.8048
2023-04-02T11:23:19.690Z,955.8237
2023-04-02T11:24:20.388Z,955.8096
2023-04-02T11:25:21.117Z,955.7911
2023-04-02T11:26:21.789Z,955.7578
2023-04-02T11:27:22.498Z,955.7530
2023-04-02T11:28:25.044Z,955.7545
2023-04-02T11:29:23.768Z,955.7377
2023-04-02T11:30:24.479Z,955.7437
2023-04-02T11:31:25.170Z,955.7663
2023-04-02T11:32:25.860Z,955.7811
2023-04-02T11:33:36.259Z,955.8315
2023-04-02T11:34:27.926Z,955.8027
2023-04-02T11:35:28.661Z,955.7907
2023-04-02T11:36:29.355Z,955.8004
2023-04-02T11:37:30.078Z,955.7756
2023-04-02T11:38:30.766Z,955.7500
2023-04-02T11:39:31.472Z,955.7678
2023-04-02T11:40:32.179Z,955.7556
2023-04-02T11:41:32.924Z,955.7870
2023-04-02T11:42:33.611Z,955.8059
2023-04-02T11:43:34.317Z,955.8341
2023-04-02T11:44:35.030Z,955.8215
2023-04-02T11:45:46.499Z,955.8367
2023-04-02T11:46:37.146Z,955.8314
2023-04-02T11:47:37.894Z,955.8415
2023-04-02T11:48:38.597Z,955.8633
2023-04-02T11:49:39.298Z,955.8689
2023-04-02T11:50:40.951Z,955.8718
2023-04-02T11:51:42.358Z,955.8811
2023-04-02T11:52:43.131Z,955.8993
2023-04-02T11:53:43.762Z,955.8896
2023-04-02T11:54:44.413Z,955.8870